Terminal Aerodrome Forecast
Issued by NWS Knoxville/Tri Cities, TN

Home | Current Version | Previous Version | Text Only | Print | Product List | Glossary On
Versions: 1 2 3 4 5 6 7 8 9 10 11 12 13 14 15 16 17 18 19 20 21 22 23 24 25 26 27
000
FTUS44 KMRX 302331
TAFTRI
TAF
KTRI 302331Z 3100/3124 25003KT P6SM BKN250
     FM310500 00000KT 5SM BR BKN200
     FM310700 00000KT 2SM BR SCT002 BKN010
     FM310900 00000KT 1/2SM FG VV002
      TEMPO 3109/3113 1/4SM FG OVC001
     FM311400 21003KT 4SM BR SCT005 BKN012
     FM311500 22003KT P6SM SCT015 BKN035
     FM311800 24005KT P6SM SCT250=

USA.gov is the U.S. government's official web portal to all federal, state and local government web resources and services.